Terminal Aerodrome Forecast
Issued by NWS

Home | Current Version | Previous Version | Text Only | Print | Product List | Glossary On
Versions: 1 2 3 4 5 6 7 8 9 10 11 12 13 14 15 16 17 18 19 20 21 22 23 24 25
000
FTUS46 KOTX 160539
TAFCOE
TAF
KCOE 160539Z 1606/1706 19004KT 4SM -SHSN BR BKN022
     FM160900 23003KT 2SM BR OVC010
     FM161300 24002KT 1/2SM FZFG OVC004
     FM162000 24006KT 6SM BR OVC012
     FM170000 23003KT 4SM BR OVC008=

USA.gov is the U.S. government's official web portal to all federal, state and local government web resources and services.